sensor_id;sensor_type;location;lat;lon;timestamp;P1;durP1;ratioP1;P2;durP2;ratioP2
1380;SDS011;684;48.342;10.096;2022-08-19T00:01:34;19.33;;;17.40;;
1380;SDS011;684;48.342;10.096;2022-08-19T00:04:03;21.27;;;18.83;;
1380;SDS011;684;48.342;10.096;2022-08-19T00:06:31;22.03;;;18.30;;
1380;SDS011;684;48.342;10.096;2022-08-19T00:09:00;22.83;;;19.23;;
1380;SDS011;684;48.342;10.096;2022-08-19T00:11:28;22.30;;;19.60;;
1380;SDS011;684;48.342;10.096;2022-08-19T00:13:55;20.60;;;18.40;;
1380;SDS011;684;48.342;10.096;2022-08-19T00:16:23;21.57;;;19.37;;
1380;SDS011;684;48.342;10.096;2022-08-19T00:18:50;23.90;;;21.37;;
1380;SDS011;684;48.342;10.096;2022-08-19T00:21:18;24.90;;;22.43;;
1380;SDS011;684;48.342;10.096;2022-08-19T00:23:44;24.17;;;20.73;;
1380;SDS011;684;48.342;10.096;2022-08-19T00:26:11;24.03;;;21.50;;
1380;SDS011;684;48.342;10.096;2022-08-19T00:28:39;23.87;;;21.33;;
1380;SDS011;684;48.342;10.096;2022-08-19T00:31:07;25.07;;;22.53;;
1380;SDS011;684;48.342;10.096;2022-08-19T00:33:34;23.57;;;21.23;;
1380;SDS011;684;48.342;10.096;2022-08-19T00:36:02;25.40;;;22.80;;
1380;SDS011;684;48.342;10.096;2022-08-19T00:38:31;23.57;;;21.17;;
1380;SDS011;684;48.342;10.096;2022-08-19T00:40:58;27.97;;;24.13;;
1380;SDS011;684;48.342;10.096;2022-08-19T00:43:25;27.00;;;23.67;;
1380;SDS011;684;48.342;10.096;2022-08-19T00:45:55;27.80;;;24.80;;
1380;SDS011;684;48.342;10.096;2022-08-19T00:48:21;27.20;;;24.30;;
1380;SDS011;684;48.342;10.096;2022-08-19T00:50:49;26.90;;;22.57;;
1380;SDS011;684;48.342;10.096;2022-08-19T00:53:19;27.40;;;24.37;;
1380;SDS011;684;48.342;10.096;2022-08-19T00:55:48;27.47;;;24.57;;
1380;SDS011;684;48.342;10.096;2022-08-19T00:58:17;27.17;;;23.60;;
1380;SDS011;684;48.342;10.096;2022-08-19T01:00:48;26.90;;;24.10;;
1380;SDS011;684;48.342;10.096;2022-08-19T01:03:17;27.30;;;24.40;;
1380;SDS011;684;48.342;10.096;2022-08-19T01:05:45;28.47;;;25.47;;
1380;SDS011;684;48.342;10.096;2022-08-19T01:08:15;30.33;;;26.63;;
1380;SDS011;684;48.342;10.096;2022-08-19T01:10:44;26.93;;;24.23;;
1380;SDS011;684;48.342;10.096;2022-08-19T01:13:13;27.90;;;24.90;;
1380;SDS011;684;48.342;10.096;2022-08-19T01:15:42;28.83;;;25.70;;
1380;SDS011;684;48.342;10.096;2022-08-19T01:18:11;28.63;;;25.73;;
1380;SDS011;684;48.342;10.096;2022-08-19T01:20:41;30.47;;;25.97;;
1380;SDS011;684;48.342;10.096;2022-08-19T01:23:10;28.30;;;25.20;;
1380;SDS011;684;48.342;10.096;2022-08-19T01:25:39;26.07;;;23.47;;
1380;SDS011;684;48.342;10.096;2022-08-19T01:28:14;30.23;;;27.07;;
1380;SDS011;684;48.342;10.096;2022-08-19T01:30:43;28.90;;;25.90;;
1380;SDS011;684;48.342;10.096;2022-08-19T01:33:11;29.70;;;25.37;;
1380;SDS011;684;48.342;10.096;2022-08-19T01:35:38;27.80;;;24.87;;
1380;SDS011;684;48.342;10.096;2022-08-19T01:38:05;28.70;;;25.30;;
1380;SDS011;684;48.342;10.096;2022-08-19T01:40:37;29.37;;;26.40;;
1380;SDS011;684;48.342;10.096;2022-08-19T01:43:07;28.27;;;25.37;;
1380;SDS011;684;48.342;10.096;2022-08-19T01:45:34;29.40;;;26.40;;
1380;SDS011;684;48.342;10.096;2022-08-19T01:48:03;29.10;;;26.10;;
1380;SDS011;684;48.342;10.096;2022-08-19T01:50:30;29.50;;;25.73;;
1380;SDS011;684;48.342;10.096;2022-08-19T01:52:57;28.17;;;25.27;;
1380;SDS011;684;48.342;10.096;2022-08-19T01:55:25;30.43;;;27.13;;
1380;SDS011;684;48.342;10.096;2022-08-19T01:57:54;29.47;;;26.37;;
1380;SDS011;684;48.342;10.096;2022-08-19T02:00:24;30.60;;;27.33;;
1380;SDS011;684;48.342;10.096;2022-08-19T02:02:53;28.87;;;25.77;;
1380;SDS011;684;48.342;10.096;2022-08-19T02:05:20;28.57;;;25.57;;
1380;SDS011;684;48.342;10.096;2022-08-19T02:07:47;30.00;;;26.87;;
1380;SDS011;684;48.342;10.096;2022-08-19T02:10:15;29.07;;;26.07;;
1380;SDS011;684;48.342;10.096;2022-08-19T02:12:44;27.30;;;24.67;;
1380;SDS011;684;48.342;10.096;2022-08-19T02:15:12;29.97;;;26.77;;
1380;SDS011;684;48.342;10.096;2022-08-19T02:17:39;32.77;;;26.80;;
1380;SDS011;684;48.342;10.096;2022-08-19T02:20:07;28.80;;;25.70;;
1380;SDS011;684;48.342;10.096;2022-08-19T02:22:35;30.77;;;27.47;;
1380;SDS011;684;48.342;10.096;2022-08-19T02:25:02;31.47;;;28.17;;
1380;SDS011;684;48.342;10.096;2022-08-19T02:27:29;28.37;;;25.37;;
1380;SDS011;684;48.342;10.096;2022-08-19T02:29:58;29.77;;;26.57;;
1380;SDS011;684;48.342;10.096;2022-08-19T02:32:27;29.73;;;26.63;;
1380;SDS011;684;48.342;10.096;2022-08-19T02:34:55;30.90;;;26.73;;
1380;SDS011;684;48.342;10.096;2022-08-19T02:37:22;30.00;;;26.80;;
1380;SDS011;684;48.342;10.096;2022-08-19T02:40:06;31.67;;;28.47;;
1380;SDS011;684;48.342;10.096;2022-08-19T02:42:34;30.87;;;27.57;;
1380;SDS011;684;48.342;10.096;2022-08-19T02:45:01;28.33;;;25.33;;
1380;SDS011;684;48.342;10.096;2022-08-19T02:47:29;32.73;;;27.10;;
1380;SDS011;684;48.342;10.096;2022-08-19T02:49:56;32.03;;;27.37;;
1380;SDS011;684;48.342;10.096;2022-08-19T02:52:23;30.53;;;27.33;;
1380;SDS011;684;48.342;10.096;2022-08-19T02:54:50;31.83;;;28.53;;
1380;SDS011;684;48.342;10.096;2022-08-19T02:57:17;31.20;;;27.87;;
1380;SDS011;684;48.342;10.096;2022-08-19T02:59:43;29.90;;;26.70;;
1380;SDS011;684;48.342;10.096;2022-08-19T03:02:10;33.30;;;28.00;;
1380;SDS011;684;48.342;10.096;2022-08-19T03:04:38;33.57;;;29.97;;
1380;SDS011;684;48.342;10.096;2022-08-19T03:07:06;31.00;;;27.20;;
1380;SDS011;684;48.342;10.096;2022-08-19T03:09:33;33.80;;;28.90;;
1380;SDS011;684;48.342;10.096;2022-08-19T03:12:03;32.03;;;28.50;;
1380;SDS011;684;48.342;10.096;2022-08-19T03:14:30;32.13;;;27.57;;
1380;SDS011;684;48.342;10.096;2022-08-19T03:16:57;31.57;;;27.80;;
1380;SDS011;684;48.342;10.096;2022-08-19T03:19:24;32.03;;;28.63;;
1380;SDS011;684;48.342;10.096;2022-08-19T03:21:52;31.20;;;27.87;;
1380;SDS011;684;48.342;10.096;2022-08-19T03:24:20;30.70;;;26.27;;
1380;SDS011;684;48.342;10.096;2022-08-19T03:26:48;34.70;;;28.87;;
1380;SDS011;684;48.342;10.096;2022-08-19T03:29:16;32.33;;;27.67;;
1380;SDS011;684;48.342;10.096;2022-08-19T03:31:44;34.53;;;30.33;;
1380;SDS011;684;48.342;10.096;2022-08-19T03:34:12;34.53;;;29.40;;
1380;SDS011;684;48.342;10.096;2022-08-19T03:36:40;33.43;;;28.37;;
1380;SDS011;684;48.342;10.096;2022-08-19T03:39:09;34.50;;;28.90;;
1380;SDS011;684;48.342;10.096;2022-08-19T03:41:37;32.67;;;27.90;;
1380;SDS011;684;48.342;10.096;2022-08-19T03:44:06;32.10;;;27.80;;
1380;SDS011;684;48.342;10.096;2022-08-19T03:46:34;31.03;;;27.30;;
1380;SDS011;684;48.342;10.096;2022-08-19T03:49:03;32.30;;;28.07;;
1380;SDS011;684;48.342;10.096;2022-08-19T03:51:33;33.07;;;27.87;;
1380;SDS011;684;48.342;10.096;2022-08-19T03:54:01;35.27;;;29.77;;
1380;SDS011;684;48.342;10.096;2022-08-19T03:56:33;33.90;;;28.73;;
1380;SDS011;684;48.342;10.096;2022-08-19T03:59:00;31.60;;;27.87;;
1380;SDS011;684;48.342;10.096;2022-08-19T04:01:28;34.60;;;29.87;;
1380;SDS011;684;48.342;10.096;2022-08-19T04:03:55;35.60;;;30.27;;
1380;SDS011;684;48.342;10.096;2022-08-19T04:06:24;35.73;;;29.17;;
1380;SDS011;684;48.342;10.096;2022-08-19T04:08:52;36.57;;;30.30;;
1380;SDS011;684;48.342;10.096;2022-08-19T04:11:22;35.73;;;30.67;;
1380;SDS011;684;48.342;10.096;2022-08-19T04:13:52;40.87;;;30.57;;
1380;SDS011;684;48.342;10.096;2022-08-19T04:16:20;33.80;;;28.23;;
1380;SDS011;684;48.342;10.096;2022-08-19T04:18:48;36.90;;;31.80;;
1380;SDS011;684;48.342;10.096;2022-08-19T04:21:16;33.40;;;27.40;;
1380;SDS011;684;48.342;10.096;2022-08-19T04:23:44;33.53;;;29.53;;
1380;SDS011;684;48.342;10.096;2022-08-19T04:26:12;37.13;;;31.53;;
1380;SDS011;684;48.342;10.096;2022-08-19T04:28:40;37.10;;;29.80;;
1380;SDS011;684;48.342;10.096;2022-08-19T04:31:11;35.53;;;29.73;;
1380;SDS011;684;48.342;10.096;2022-08-19T04:33:39;34.50;;;29.37;;
1380;SDS011;684;48.342;10.096;2022-08-19T04:36:07;34.63;;;30.20;;
1380;SDS011;684;48.342;10.096;2022-08-19T04:38:35;33.40;;;29.70;;
1380;SDS011;684;48.342;10.096;2022-08-19T04:41:02;36.30;;;30.57;;
1380;SDS011;684;48.342;10.096;2022-08-19T04:43:47;39.60;;;30.23;;
1380;SDS011;684;48.342;10.096;2022-08-19T04:46:16;39.53;;;30.97;;
1380;SDS011;684;48.342;10.096;2022-08-19T04:48:45;36.13;;;30.07;;
1380;SDS011;684;48.342;10.096;2022-08-19T04:51:12;38.03;;;31.10;;
1380;SDS011;684;48.342;10.096;2022-08-19T04:53:39;38.27;;;32.60;;
1380;SDS011;684;48.342;10.096;2022-08-19T04:56:08;36.10;;;29.73;;
1380;SDS011;684;48.342;10.096;2022-08-19T04:58:37;35.93;;;29.97;;
1380;SDS011;684;48.342;10.096;2022-08-19T05:01:05;35.03;;;29.50;;
1380;SDS011;684;48.342;10.096;2022-08-19T05:03:33;37.97;;;30.63;;
1380;SDS011;684;48.342;10.096;2022-08-19T05:06:03;39.20;;;31.67;;
1380;SDS011;684;48.342;10.096;2022-08-19T05:08:33;40.00;;;32.03;;
1380;SDS011;684;48.342;10.096;2022-08-19T05:11:00;40.60;;;33.57;;
1380;SDS011;684;48.342;10.096;2022-08-19T05:13:32;39.50;;;32.47;;
1380;SDS011;684;48.342;10.096;2022-08-19T05:15:59;39.80;;;31.30;;
1380;SDS011;684;48.342;10.096;2022-08-19T05:18:26;42.10;;;33.03;;
1380;SDS011;684;48.342;10.096;2022-08-19T05:21:12;40.30;;;32.47;;
1380;SDS011;684;48.342;10.096;2022-08-19T05:23:58;40.60;;;31.00;;
1380;SDS011;684;48.342;10.096;2022-08-19T05:26:25;40.53;;;31.27;;
1380;SDS011;684;48.342;10.096;2022-08-19T05:28:52;37.53;;;29.40;;
1380;SDS011;684;48.342;10.096;2022-08-19T05:31:19;38.10;;;31.93;;
1380;SDS011;684;48.342;10.096;2022-08-19T05:33:47;39.60;;;31.63;;
1380;SDS011;684;48.342;10.096;2022-08-19T05:36:16;35.73;;;30.47;;
1380;SDS011;684;48.342;10.096;2022-08-19T05:38:43;40.73;;;31.57;;
1380;SDS011;684;48.342;10.096;2022-08-19T05:41:11;38.77;;;31.80;;
1380;SDS011;684;48.342;10.096;2022-08-19T05:43:39;36.30;;;30.13;;
1380;SDS011;684;48.342;10.096;2022-08-19T05:46:06;38.90;;;29.60;;
1380;SDS011;684;48.342;10.096;2022-08-19T05:48:33;38.53;;;31.70;;
1380;SDS011;684;48.342;10.096;2022-08-19T05:51:03;36.30;;;29.57;;
1380;SDS011;684;48.342;10.096;2022-08-19T05:53:32;39.17;;;30.33;;
1380;SDS011;684;48.342;10.096;2022-08-19T05:56:03;34.60;;;28.73;;
1380;SDS011;684;48.342;10.096;2022-08-19T05:58:30;34.50;;;28.73;;
1380;SDS011;684;48.342;10.096;2022-08-19T06:00:57;35.97;;;30.30;;
1380;SDS011;684;48.342;10.096;2022-08-19T06:03:29;37.47;;;30.03;;
1380;SDS011;684;48.342;10.096;2022-08-19T06:05:56;41.07;;;32.00;;
1380;SDS011;684;48.342;10.096;2022-08-19T06:08:24;37.20;;;30.97;;
1380;SDS011;684;48.342;10.096;2022-08-19T06:10:53;37.10;;;31.27;;
1380;SDS011;684;48.342;10.096;2022-08-19T06:13:20;39.33;;;32.53;;
1380;SDS011;684;48.342;10.096;2022-08-19T06:15:49;38.13;;;31.53;;
1380;SDS011;684;48.342;10.096;2022-08-19T06:18:16;38.00;;;31.40;;
1380;SDS011;684;48.342;10.096;2022-08-19T06:20:42;39.23;;;30.90;;
1380;SDS011;684;48.342;10.096;2022-08-19T06:23:09;41.97;;;33.80;;
1380;SDS011;684;48.342;10.096;2022-08-19T06:25:36;40.17;;;32.10;;
1380;SDS011;684;48.342;10.096;2022-08-19T06:28:06;35.23;;;29.73;;
1380;SDS011;684;48.342;10.096;2022-08-19T06:30:33;37.57;;;30.93;;
1380;SDS011;684;48.342;10.096;2022-08-19T06:33:02;39.00;;;32.53;;
1380;SDS011;684;48.342;10.096;2022-08-19T06:35:30;37.20;;;31.03;;
1380;SDS011;684;48.342;10.096;2022-08-19T06:37:57;40.43;;;31.37;;
1380;SDS011;684;48.342;10.096;2022-08-19T06:40:24;36.80;;;28.77;;
1380;SDS011;684;48.342;10.096;2022-08-19T06:42:52;37.90;;;30.03;;
1380;SDS011;684;48.342;10.096;2022-08-19T06:45:20;35.77;;;30.83;;
1380;SDS011;684;48.342;10.096;2022-08-19T06:47:47;36.50;;;29.90;;
1380;SDS011;684;48.342;10.096;2022-08-19T06:50:14;34.73;;;29.20;;
1380;SDS011;684;48.342;10.096;2022-08-19T06:52:41;36.60;;;29.30;;
1380;SDS011;684;48.342;10.096;2022-08-19T06:55:08;34.87;;;29.00;;
1380;SDS011;684;48.342;10.096;2022-08-19T06:57:35;34.60;;;29.13;;
1380;SDS011;684;48.342;10.096;2022-08-19T07:00:03;34.10;;;28.00;;
1380;SDS011;684;48.342;10.096;2022-08-19T07:02:37;37.13;;;30.00;;
1380;SDS011;684;48.342;10.096;2022-08-19T07:05:04;31.47;;;26.67;;
1380;SDS011;684;48.342;10.096;2022-08-19T07:07:32;33.50;;;27.57;;
1380;SDS011;684;48.342;10.096;2022-08-19T07:09:59;38.87;;;29.33;;
1380;SDS011;684;48.342;10.096;2022-08-19T07:12:25;35.83;;;29.10;;
1380;SDS011;684;48.342;10.096;2022-08-19T07:14:53;33.17;;;27.17;;
1380;SDS011;684;48.342;10.096;2022-08-19T07:17:20;32.63;;;28.57;;
1380;SDS011;684;48.342;10.096;2022-08-19T07:19:48;33.90;;;28.53;;
1380;SDS011;684;48.342;10.096;2022-08-19T07:22:15;35.07;;;27.70;;
1380;SDS011;684;48.342;10.096;2022-08-19T07:24:45;33.53;;;27.33;;
1380;SDS011;684;48.342;10.096;2022-08-19T07:27:12;32.73;;;26.90;;
1380;SDS011;684;48.342;10.096;2022-08-19T07:29:40;33.30;;;26.50;;
1380;SDS011;684;48.342;10.096;2022-08-19T07:32:07;29.57;;;25.47;;
1380;SDS011;684;48.342;10.096;2022-08-19T07:34:34;31.40;;;25.90;;
1380;SDS011;684;48.342;10.096;2022-08-19T07:37:04;29.90;;;26.00;;
1380;SDS011;684;48.342;10.096;2022-08-19T07:39:32;28.83;;;25.73;;
1380;SDS011;684;48.342;10.096;2022-08-19T07:42:01;29.13;;;24.77;;
1380;SDS011;684;48.342;10.096;2022-08-19T07:44:32;29.83;;;23.67;;
1380;SDS011;684;48.342;10.096;2022-08-19T07:46:59;30.30;;;25.80;;
1380;SDS011;684;48.342;10.096;2022-08-19T07:49:26;30.63;;;26.23;;
1380;SDS011;684;48.342;10.096;2022-08-19T07:51:55;28.37;;;22.90;;
1380;SDS011;684;48.342;10.096;2022-08-19T07:54:25;28.87;;;24.73;;
1380;SDS011;684;48.342;10.096;2022-08-19T07:56:54;29.63;;;23.93;;
1380;SDS011;684;48.342;10.096;2022-08-19T07:59:22;27.40;;;23.90;;
1380;SDS011;684;48.342;10.096;2022-08-19T08:01:50;26.40;;;23.20;;
1380;SDS011;684;48.342;10.096;2022-08-19T08:04:18;28.03;;;23.90;;
1380;SDS011;684;48.342;10.096;2022-08-19T08:07:03;29.17;;;23.90;;
1380;SDS011;684;48.342;10.096;2022-08-19T08:09:49;28.40;;;23.13;;
1380;SDS011;684;48.342;10.096;2022-08-19T08:12:17;27.97;;;24.50;;
1380;SDS011;684;48.342;10.096;2022-08-19T08:14:48;29.23;;;25.17;;
1380;SDS011;684;48.342;10.096;2022-08-19T08:17:20;26.03;;;23.23;;
1380;SDS011;684;48.342;10.096;2022-08-19T08:19:48;25.07;;;22.40;;
1380;SDS011;684;48.342;10.096;2022-08-19T08:22:16;28.60;;;24.20;;
1380;SDS011;684;48.342;10.096;2022-08-19T08:25:01;26.30;;;23.50;;
1380;SDS011;684;48.342;10.096;2022-08-19T08:27:30;25.30;;;22.30;;
1380;SDS011;684;48.342;10.096;2022-08-19T08:29:57;25.90;;;21.80;;
1380;SDS011;684;48.342;10.096;2022-08-19T08:32:24;24.70;;;21.40;;
1380;SDS011;684;48.342;10.096;2022-08-19T08:34:51;24.67;;;21.80;;
1380;SDS011;684;48.342;10.096;2022-08-19T08:37:18;25.10;;;20.47;;
1380;SDS011;684;48.342;10.096;2022-08-19T08:39:47;25.70;;;20.90;;
1380;SDS011;684;48.342;10.096;2022-08-19T08:42:16;22.10;;;18.60;;
1380;SDS011;684;48.342;10.096;2022-08-19T08:44:52;24.90;;;22.20;;
1380;SDS011;684;48.342;10.096;2022-08-19T08:47:23;25.80;;;21.93;;
1380;SDS011;684;48.342;10.096;2022-08-19T08:49:53;28.67;;;23.17;;
1380;SDS011;684;48.342;10.096;2022-08-19T08:52:25;27.93;;;23.67;;
1380;SDS011;684;48.342;10.096;2022-08-19T08:54:55;33.23;;;25.20;;
1380;SDS011;684;48.342;10.096;2022-08-19T08:57:27;26.70;;;22.23;;
1380;SDS011;684;48.342;10.096;2022-08-19T08:59:56;28.17;;;22.80;;
1380;SDS011;684;48.342;10.096;2022-08-19T09:02:27;31.77;;;24.00;;
1380;SDS011;684;48.342;10.096;2022-08-19T09:04:54;30.20;;;24.73;;
1380;SDS011;684;48.342;10.096;2022-08-19T09:07:26;28.70;;;23.63;;
1380;SDS011;684;48.342;10.096;2022-08-19T09:10:02;25.50;;;20.60;;
1380;SDS011;684;48.342;10.096;2022-08-19T09:12:36;26.07;;;22.20;;
1380;SDS011;684;48.342;10.096;2022-08-19T09:15:09;31.43;;;22.70;;
1380;SDS011;684;48.342;10.096;2022-08-19T09:17:38;30.20;;;24.73;;
1380;SDS011;684;48.342;10.096;2022-08-19T09:20:05;31.27;;;25.13;;
1380;SDS011;684;48.342;10.096;2022-08-19T09:22:40;33.93;;;25.60;;
1380;SDS011;684;48.342;10.096;2022-08-19T09:25:09;33.57;;;26.97;;
1380;SDS011;684;48.342;10.096;2022-08-19T09:27:39;30.27;;;26.57;;
1380;SDS011;684;48.342;10.096;2022-08-19T09:30:07;30.10;;;25.47;;
1380;SDS011;684;48.342;10.096;2022-08-19T09:32:37;32.77;;;27.00;;
1380;SDS011;684;48.342;10.096;2022-08-19T09:35:07;31.67;;;26.10;;
1380;SDS011;684;48.342;10.096;2022-08-19T09:37:34;33.87;;;26.53;;
1380;SDS011;684;48.342;10.096;2022-08-19T09:40:01;35.90;;;29.00;;
1380;SDS011;684;48.342;10.096;2022-08-19T09:42:28;34.43;;;27.53;;
1380;SDS011;684;48.342;10.096;2022-08-19T09:44:57;33.40;;;28.43;;
1380;SDS011;684;48.342;10.096;2022-08-19T09:47:23;30.30;;;25.17;;
1380;SDS011;684;48.342;10.096;2022-08-19T09:49:50;30.67;;;24.73;;
1380;SDS011;684;48.342;10.096;2022-08-19T09:52:17;32.17;;;26.33;;
1380;SDS011;684;48.342;10.096;2022-08-19T09:54:44;33.63;;;27.90;;
1380;SDS011;684;48.342;10.096;2022-08-19T09:57:10;35.90;;;28.83;;
1380;SDS011;684;48.342;10.096;2022-08-19T09:59:38;36.60;;;29.70;;
1380;SDS011;684;48.342;10.096;2022-08-19T10:02:06;34.80;;;29.53;;
1380;SDS011;684;48.342;10.096;2022-08-19T10:04:34;34.23;;;27.53;;
1380;SDS011;684;48.342;10.096;2022-08-19T10:07:18;35.03;;;29.50;;
1380;SDS011;684;48.342;10.096;2022-08-19T10:09:46;37.10;;;29.77;;
1380;SDS011;684;48.342;10.096;2022-08-19T10:12:12;35.20;;;30.30;;
1380;SDS011;684;48.342;10.096;2022-08-19T10:14:40;37.93;;;31.07;;
1380;SDS011;684;48.342;10.096;2022-08-19T10:17:08;35.37;;;29.80;;
1380;SDS011;684;48.342;10.096;2022-08-19T10:19:35;32.97;;;27.57;;
1380;SDS011;684;48.342;10.096;2022-08-19T10:22:02;32.33;;;28.57;;
1380;SDS011;684;48.342;10.096;2022-08-19T10:24:30;34.67;;;29.57;;
1380;SDS011;684;48.342;10.096;2022-08-19T10:26:58;34.57;;;28.90;;
1380;SDS011;684;48.342;10.096;2022-08-19T10:29:28;37.43;;;30.63;;
1380;SDS011;684;48.342;10.096;2022-08-19T10:31:55;39.37;;;30.93;;
1380;SDS011;684;48.342;10.096;2022-08-19T10:34:24;38.33;;;31.57;;
1380;SDS011;684;48.342;10.096;2022-08-19T10:36:51;38.50;;;31.37;;
1380;SDS011;684;48.342;10.096;2022-08-19T10:39:18;39.50;;;30.90;;
1380;SDS011;684;48.342;10.096;2022-08-19T10:41:45;45.23;;;34.77;;
1380;SDS011;684;48.342;10.096;2022-08-19T10:44:12;37.00;;;31.70;;
1380;SDS011;684;48.342;10.096;2022-08-19T10:46:42;38.03;;;32.10;;
1380;SDS011;684;48.342;10.096;2022-08-19T10:49:12;41.20;;;33.97;;
1380;SDS011;684;48.342;10.096;2022-08-19T10:51:40;43.63;;;35.10;;
1380;SDS011;684;48.342;10.096;2022-08-19T10:54:40;37.43;;;31.63;;
1380;SDS011;684;48.342;10.096;2022-08-19T10:57:24;35.03;;;29.60;;
1380;SDS011;684;48.342;10.096;2022-08-19T10:59:54;36.00;;;29.17;;
1380;SDS011;684;48.342;10.096;2022-08-19T11:02:21;42.43;;;30.40;;
1380;SDS011;684;48.342;10.096;2022-08-19T11:04:48;32.87;;;28.73;;
1380;SDS011;684;48.342;10.096;2022-08-19T11:07:17;35.20;;;28.67;;
1380;SDS011;684;48.342;10.096;2022-08-19T11:09:46;37.53;;;27.57;;
1380;SDS011;684;48.342;10.096;2022-08-19T11:12:13;31.00;;;25.60;;
1380;SDS011;684;48.342;10.096;2022-08-19T11:14:42;31.47;;;26.57;;
1380;SDS011;684;48.342;10.096;2022-08-19T11:17:08;33.57;;;28.77;;
1380;SDS011;684;48.342;10.096;2022-08-19T11:19:37;31.03;;;26.67;;
1380;SDS011;684;48.342;10.096;2022-08-19T11:22:06;37.47;;;28.90;;
1380;SDS011;684;48.342;10.096;2022-08-19T11:24:35;36.47;;;29.87;;
1380;SDS011;684;48.342;10.096;2022-08-19T11:27:03;37.00;;;28.37;;
1380;SDS011;684;48.342;10.096;2022-08-19T11:29:34;34.93;;;27.67;;
1380;SDS011;684;48.342;10.096;2022-08-19T11:32:03;36.27;;;29.70;;
1380;SDS011;684;48.342;10.096;2022-08-19T11:34:33;31.27;;;27.43;;
1380;SDS011;684;48.342;10.096;2022-08-19T11:37:00;35.10;;;27.97;;
1380;SDS011;684;48.342;10.096;2022-08-19T11:39:29;32.10;;;27.77;;
1380;SDS011;684;48.342;10.096;2022-08-19T11:41:59;31.27;;;25.50;;
1380;SDS011;684;48.342;10.096;2022-08-19T11:44:27;30.63;;;25.70;;
1380;SDS011;684;48.342;10.096;2022-08-19T11:46:56;28.50;;;23.93;;
1380;SDS011;684;48.342;10.096;2022-08-19T11:49:25;29.33;;;24.40;;
1380;SDS011;684;48.342;10.096;2022-08-19T11:51:52;29.17;;;24.83;;
1380;SDS011;684;48.342;10.096;2022-08-19T11:54:19;26.53;;;22.03;;
1380;SDS011;684;48.342;10.096;2022-08-19T11:56:47;25.07;;;21.47;;
1380;SDS011;684;48.342;10.096;2022-08-19T11:59:15;28.10;;;21.30;;
1380;SDS011;684;48.342;10.096;2022-08-19T12:01:42;26.83;;;21.77;;
1380;SDS011;684;48.342;10.096;2022-08-19T12:04:09;24.43;;;19.70;;
1380;SDS011;684;48.342;10.096;2022-08-19T12:06:37;24.30;;;20.70;;
1380;SDS011;684;48.342;10.096;2022-08-19T12:09:06;24.43;;;20.77;;
1380;SDS011;684;48.342;10.096;2022-08-19T12:11:34;22.70;;;19.10;;
1380;SDS011;684;48.342;10.096;2022-08-19T12:14:02;20.47;;;18.03;;
1380;SDS011;684;48.342;10.096;2022-08-19T12:16:31;21.27;;;17.63;;
1380;SDS011;684;48.342;10.096;2022-08-19T12:18:58;20.33;;;17.87;;
1380;SDS011;684;48.342;10.096;2022-08-19T12:21:29;21.67;;;18.37;;
1380;SDS011;684;48.342;10.096;2022-08-19T12:23:57;22.00;;;17.73;;
1380;SDS011;684;48.342;10.096;2022-08-19T12:26:25;21.73;;;18.20;;
1380;SDS011;684;48.342;10.096;2022-08-19T12:28:54;24.50;;;20.40;;
1380;SDS011;684;48.342;10.096;2022-08-19T12:31:21;24.50;;;21.53;;
1380;SDS011;684;48.342;10.096;2022-08-19T12:33:49;24.40;;;20.57;;
1380;SDS011;684;48.342;10.096;2022-08-19T12:36:17;24.23;;;19.80;;
1380;SDS011;684;48.342;10.096;2022-08-19T12:38:44;24.43;;;20.60;;
1380;SDS011;684;48.342;10.096;2022-08-19T12:41:12;23.80;;;20.40;;
1380;SDS011;684;48.342;10.096;2022-08-19T12:43:42;26.37;;;21.63;;
1380;SDS011;684;48.342;10.096;2022-08-19T12:46:09;23.57;;;21.03;;
1380;SDS011;684;48.342;10.096;2022-08-19T12:48:38;23.90;;;20.87;;
1380;SDS011;684;48.342;10.096;2022-08-19T12:51:08;23.43;;;20.87;;
1380;SDS011;684;48.342;10.096;2022-08-19T12:53:37;24.80;;;21.00;;
1380;SDS011;684;48.342;10.096;2022-08-19T12:56:04;23.37;;;20.73;;
1380;SDS011;684;48.342;10.096;2022-08-19T12:58:32;24.10;;;20.83;;
1380;SDS011;684;48.342;10.096;2022-08-19T13:00:59;23.63;;;20.07;;
1380;SDS011;684;48.342;10.096;2022-08-19T13:03:31;21.40;;;18.17;;
1380;SDS011;684;48.342;10.096;2022-08-19T13:05:58;23.43;;;19.30;;
1380;SDS011;684;48.342;10.096;2022-08-19T13:08:26;23.87;;;20.90;;
1380;SDS011;684;48.342;10.096;2022-08-19T13:10:53;24.57;;;21.20;;
1380;SDS011;684;48.342;10.096;2022-08-19T13:13:20;23.10;;;20.70;;
1380;SDS011;684;48.342;10.096;2022-08-19T13:15:47;24.93;;;21.27;;
1380;SDS011;684;48.342;10.096;2022-08-19T13:18:14;25.60;;;20.97;;
1380;SDS011;684;48.342;10.096;2022-08-19T13:20:41;23.03;;;19.47;;
1380;SDS011;684;48.342;10.096;2022-08-19T13:23:08;24.03;;;19.37;;
1380;SDS011;684;48.342;10.096;2022-08-19T13:25:36;20.70;;;17.40;;
1380;SDS011;684;48.342;10.096;2022-08-19T13:28:03;19.80;;;17.10;;
1380;SDS011;684;48.342;10.096;2022-08-19T13:30:31;18.20;;;15.90;;
1380;SDS011;684;48.342;10.096;2022-08-19T13:33:16;16.93;;;13.70;;
1380;SDS011;684;48.342;10.096;2022-08-19T13:35:45;16.93;;;14.67;;
1380;SDS011;684;48.342;10.096;2022-08-19T13:38:14;18.57;;;15.13;;
1380;SDS011;684;48.342;10.096;2022-08-19T13:40:44;16.77;;;14.17;;
1380;SDS011;684;48.342;10.096;2022-08-19T13:43:11;14.07;;;12.50;;
1380;SDS011;684;48.342;10.096;2022-08-19T13:45:38;14.67;;;12.70;;
1380;SDS011;684;48.342;10.096;2022-08-19T13:48:06;15.67;;;13.30;;
1380;SDS011;684;48.342;10.096;2022-08-19T13:50:34;17.40;;;13.17;;
1380;SDS011;684;48.342;10.096;2022-08-19T13:53:05;14.93;;;11.73;;
1380;SDS011;684;48.342;10.096;2022-08-19T13:55:32;12.73;;;9.67;;
1380;SDS011;684;48.342;10.096;2022-08-19T13:58:02;11.20;;;7.17;;
1380;SDS011;684;48.342;10.096;2022-08-19T14:00:30;7.90;;;5.40;;
1380;SDS011;684;48.342;10.096;2022-08-19T14:02:59;6.30;;;4.40;;
1380;SDS011;684;48.342;10.096;2022-08-19T14:05:27;6.60;;;4.07;;
1380;SDS011;684;48.342;10.096;2022-08-19T14:07:55;6.70;;;4.90;;
1380;SDS011;684;48.342;10.096;2022-08-19T14:10:23;7.23;;;5.03;;
1380;SDS011;684;48.342;10.096;2022-08-19T14:12:52;7.97;;;6.07;;
1380;SDS011;684;48.342;10.096;2022-08-19T14:15:22;7.27;;;5.57;;
1380;SDS011;684;48.342;10.096;2022-08-19T14:17:49;7.87;;;5.83;;
1380;SDS011;684;48.342;10.096;2022-08-19T14:20:16;8.67;;;6.57;;
1380;SDS011;684;48.342;10.096;2022-08-19T14:22:44;8.60;;;6.30;;
1380;SDS011;684;48.342;10.096;2022-08-19T14:25:13;8.07;;;5.97;;
1380;SDS011;684;48.342;10.096;2022-08-19T14:27:42;8.80;;;6.03;;
1380;SDS011;684;48.342;10.096;2022-08-19T14:30:10;8.90;;;7.00;;
1380;SDS011;684;48.342;10.096;2022-08-19T14:32:40;8.73;;;7.10;;
1380;SDS011;684;48.342;10.096;2022-08-19T14:35:08;11.20;;;9.20;;
1380;SDS011;684;48.342;10.096;2022-08-19T14:37:35;12.50;;;9.57;;
1380;SDS011;684;48.342;10.096;2022-08-19T14:40:02;11.43;;;9.70;;
1380;SDS011;684;48.342;10.096;2022-08-19T14:42:30;11.73;;;9.83;;
1380;SDS011;684;48.342;10.096;2022-08-19T14:44:57;12.83;;;11.07;;
1380;SDS011;684;48.342;10.096;2022-08-19T14:47:24;11.40;;;9.70;;
1380;SDS011;684;48.342;10.096;2022-08-19T14:49:53;14.07;;;11.30;;
1380;SDS011;684;48.342;10.096;2022-08-19T14:52:20;13.23;;;11.20;;
1380;SDS011;684;48.342;10.096;2022-08-19T14:54:47;13.97;;;11.30;;
1380;SDS011;684;48.342;10.096;2022-08-19T14:57:14;12.60;;;11.30;;